createdAt,value
2022-10-16T00:06:33.920Z,10.88
2022-10-16T00:16:37.315Z,15.90
2022-10-16T00:26:42.364Z,9.63
2022-10-16T00:46:49.579Z,8.75
2022-10-16T00:56:53.713Z,10.47
2022-10-16T01:07:12.523Z,12.77
2022-10-16T01:17:20.577Z,8.18
2022-10-16T01:27:28.370Z,8.32
2022-10-16T01:37:37.310Z,13.00
2022-10-16T01:47:42.843Z,7.72
2022-10-16T01:57:49.782Z,8.73
2022-10-16T02:07:54.206Z,9.73
2022-10-16T02:17:57.441Z,7.00
2022-10-16T02:28:06.477Z,5.95
2022-10-16T02:48:16.033Z,5.13
2022-10-16T03:08:24.702Z,5.60
2022-10-16T03:18:27.629Z,4.43
2022-10-16T03:28:31.922Z,4.05
2022-10-16T03:38:34.938Z,5.67
2022-10-16T03:48:40.905Z,2.38
2022-10-16T03:58:43.850Z,5.03
2022-10-16T04:08:48.171Z,5.93
2022-10-16T04:18:51.301Z,3.13
2022-10-16T04:28:55.686Z,4.78
2022-10-16T04:38:58.626Z,8.10
2022-10-16T04:49:03.108Z,5.47
2022-10-16T04:59:06.058Z,5.67
2022-10-16T05:09:10.932Z,6.50
2022-10-16T05:19:29.323Z,7.38
2022-10-16T05:29:33.794Z,5.93
2022-10-16T05:39:37.895Z,8.90
2022-10-16T05:49:42.167Z,7.57
2022-10-16T05:59:45.082Z,4.63
2022-10-16T06:09:51.721Z,8.55
2022-10-16T06:19:54.757Z,8.02
2022-10-16T06:29:59.315Z,11.15
2022-10-16T06:40:05.230Z,15.13
2022-10-16T06:50:10.115Z,9.45
2022-10-16T07:10:17.836Z,7.38
2022-10-16T07:20:21.604Z,7.50
2022-10-16T07:30:26.291Z,9.10
2022-10-16T07:40:29.319Z,6.43
2022-10-16T07:50:33.771Z,5.78
2022-10-16T08:00:38.406Z,12.13
2022-10-16T08:10:43.124Z,8.27
2022-10-16T08:20:46.188Z,8.60
2022-10-16T08:30:50.654Z,4.53
2022-10-16T08:40:57.731Z,6.07
2022-10-16T08:51:04.794Z,4.07
2022-10-16T09:01:16.014Z,8.05
2022-10-16T09:11:32.463Z,5.40
2022-10-16T09:21:39.430Z,8.35
2022-10-16T09:31:44.656Z,10.82
2022-10-16T09:41:48.098Z,12.05
2022-10-16T09:51:54.815Z,9.90
2022-10-16T10:02:00.152Z,18.48
2022-10-16T10:12:06.573Z,9.80
2022-10-16T10:22:28.239Z,13.52
2022-10-16T10:32:43.240Z,10.00
2022-10-16T10:42:55.180Z,10.25
2022-10-16T10:53:10.394Z,12.38
2022-10-16T11:03:25.259Z,14.43
2022-10-16T11:13:37.040Z,15.15
2022-10-16T11:23:45.353Z,13.52
2022-10-16T11:33:55.023Z,13.32
2022-10-16T11:44:12.460Z,15.23
2022-10-16T11:54:23.585Z,12.90
2022-10-16T12:04:34.493Z,10.68
2022-10-16T12:15:03.792Z,9.15
2022-10-16T12:25:03.952Z,11.52
2022-10-16T12:35:21.227Z,8.88
2022-10-16T12:45:32.256Z,11.23
2022-10-16T12:55:53.358Z,9.32
2022-10-16T13:06:10.314Z,7.45
2022-10-16T13:16:25.204Z,4.97
2022-10-16T13:26:40.125Z,9.32
2022-10-16T13:36:48.651Z,7.88
2022-10-16T13:47:01.192Z,9.13
2022-10-16T13:57:26.213Z,10.45
2022-10-16T14:07:32.301Z,14.52
2022-10-16T14:17:38.136Z,6.72
2022-10-16T14:27:41.253Z,9.73
2022-10-16T14:37:46.564Z,9.30
2022-10-16T14:47:52.785Z,17.77
2022-10-16T14:57:59.852Z,6.85
2022-10-16T15:08:05.787Z,7.40
2022-10-16T15:18:10.422Z,7.75
2022-10-16T15:28:14.731Z,12.65
2022-10-16T15:58:27.025Z,6.70
2022-10-16T16:18:34.348Z,4.90
2022-10-16T16:38:41.914Z,6.82
2022-10-16T16:48:45.074Z,9.50
2022-10-16T16:58:50.075Z,8.52
2022-10-16T17:08:53.564Z,10.15
2022-10-16T17:18:57.954Z,15.25
2022-10-16T17:29:02.994Z,13.40
2022-10-16T17:39:09.787Z,12.07
2022-10-16T17:49:13.014Z,17.67
2022-10-16T17:59:17.564Z,13.32
2022-10-16T18:19:26.447Z,16.20
2022-10-16T18:29:29.552Z,15.10
2022-10-16T18:39:34.087Z,17.20
2022-10-16T18:49:37.227Z,12.63
2022-10-16T18:59:41.792Z,13.77
2022-10-16T19:09:44.883Z,14.38
2022-10-16T19:19:49.240Z,12.32
2022-10-16T19:29:52.168Z,14.20
2022-10-16T19:39:56.559Z,14.07
2022-10-16T19:49:59.493Z,19.25
2022-10-16T20:00:04.986Z,12.50
2022-10-16T20:10:10.833Z,17.83
2022-10-16T20:20:15.406Z,13.37
2022-10-16T20:30:18.594Z,19.73
2022-10-16T20:40:23.129Z,15.27
2022-10-16T20:50:29.300Z,19.83
2022-10-16T21:00:33.810Z,16.63
2022-10-16T21:10:37.006Z,16.23
2022-10-16T21:20:44.918Z,16.35
2022-10-16T21:30:47.862Z,16.02
2022-10-16T21:40:52.192Z,24.48
2022-10-16T21:50:55.154Z,20.03
2022-10-16T22:00:59.602Z,24.58
2022-10-16T22:11:06.546Z,24.07
2022-10-16T22:21:10.972Z,26.63
2022-10-16T22:31:15.834Z,22.27
2022-10-16T22:51:23.658Z,23.33
2022-10-16T23:01:31.429Z,21.75
2022-10-16T23:11:34.735Z,25.10
2022-10-16T23:21:39.072Z,22.43
2022-10-16T23:31:42.036Z,16.83
2022-10-16T23:41:46.318Z,22.17
2022-10-16T23:51:49.238Z,22.90
